createdAt,value
2023-02-14T00:01:31.283Z,101578.00
2023-02-14T00:04:01.527Z,101573.00
2023-02-14T00:06:29.760Z,101564.00
2023-02-14T00:08:57.636Z,101566.00
2023-02-14T00:11:25.516Z,101555.00
2023-02-14T00:14:10.818Z,101565.00
2023-02-14T00:16:38.866Z,101566.00
2023-02-14T00:19:08.337Z,101558.00
2023-02-14T00:21:38.508Z,101551.00
2023-02-14T00:24:10.201Z,101542.00
2023-02-14T00:26:39.466Z,101546.00
2023-02-14T00:29:11.564Z,101563.00
2023-02-14T00:31:40.353Z,101553.00
2023-02-14T00:34:12.002Z,101547.00
2023-02-14T00:36:40.168Z,101550.00
2023-02-14T00:39:13.598Z,101542.00
2023-02-14T00:41:42.902Z,101544.00
2023-02-14T00:44:12.651Z,101550.00
2023-02-14T00:46:41.475Z,101544.00
2023-02-14T00:49:11.079Z,101536.00
2023-02-14T00:51:39.595Z,101544.00
2023-02-14T00:54:07.599Z,101535.00
2023-02-14T00:56:35.464Z,101545.00
2023-02-14T00:59:03.392Z,101544.00
2023-02-14T01:01:31.308Z,101548.00
2023-02-14T01:03:59.848Z,101544.00
2023-02-14T01:06:29.119Z,101527.00
2023-02-14T01:08:57.967Z,101534.00
2023-02-14T01:11:28.693Z,101536.00
2023-02-14T01:13:59.795Z,101545.00
2023-02-14T01:16:30.002Z,101536.00
2023-02-14T01:19:00.964Z,101529.00
2023-02-14T01:21:32.893Z,101542.00
2023-02-14T01:24:05.257Z,101535.00
2023-02-14T01:26:34.219Z,101531.00
2023-02-14T01:29:02.838Z,101529.00
2023-02-14T01:31:33.420Z,101537.00
2023-02-14T01:34:02.551Z,101527.00
2023-02-14T01:36:36.322Z,101528.00
2023-02-14T01:39:08.177Z,101538.00
2023-02-14T01:41:38.522Z,101529.00
2023-02-14T01:44:29.370Z,101530.00
2023-02-14T01:47:03.155Z,101523.00
2023-02-14T01:49:36.405Z,101528.00
2023-02-14T01:52:10.448Z,101539.00
2023-02-14T01:54:44.772Z,101528.00
2023-02-14T01:57:17.336Z,101530.00
2023-02-14T01:59:53.802Z,101534.00
2023-02-14T02:02:24.422Z,101531.00
2023-02-14T02:04:57.374Z,101527.00
2023-02-14T02:07:30.246Z,101526.00
2023-02-14T02:10:03.460Z,101520.00
2023-02-14T02:12:31.614Z,101519.00
2023-02-14T02:15:01.037Z,101516.00
2023-02-14T02:17:43.821Z,101510.00
2023-02-14T02:21:06.909Z,101514.00
2023-02-14T02:24:18.291Z,101505.00
2023-02-14T02:27:25.991Z,101502.00
2023-02-14T02:30:40.220Z,101492.00
2023-02-14T02:33:57.824Z,101500.00
2023-02-14T02:37:03.619Z,101498.00
2023-02-14T02:39:50.248Z,101495.00
2023-02-14T02:42:34.996Z,101499.00
2023-02-14T02:45:14.508Z,101501.00
2023-02-14T02:47:53.485Z,101494.00
2023-02-14T02:50:48.147Z,101496.00
2023-02-14T02:53:24.142Z,101498.00
2023-02-14T02:56:18.125Z,101507.00
2023-02-14T02:58:52.730Z,101491.00
2023-02-14T03:01:25.329Z,101499.00
2023-02-14T03:04:17.990Z,101504.00
2023-02-14T03:06:47.802Z,101510.00
2023-02-14T03:09:54.705Z,101498.00
2023-02-14T03:13:05.664Z,101493.00
2023-02-14T03:15:52.930Z,101496.00
2023-02-14T03:18:40.344Z,101494.00
2023-02-14T03:21:22.264Z,101493.00
2023-02-14T03:23:58.789Z,101490.00
2023-02-14T03:26:40.652Z,101494.00
2023-02-14T03:29:19.411Z,101498.00
2023-02-14T03:32:01.466Z,101496.00
2023-02-14T03:34:36.331Z,101494.00
2023-02-14T03:37:10.882Z,101487.00
2023-02-14T03:39:46.879Z,101493.00
2023-02-14T03:42:23.172Z,101485.00
2023-02-14T03:44:54.808Z,101488.00
2023-02-14T03:47:26.607Z,101481.00
2023-02-14T03:50:02.475Z,101494.00
2023-02-14T03:52:32.937Z,101493.00
2023-02-14T03:55:04.863Z,101494.00
2023-02-14T03:57:43.711Z,101494.00
2023-02-14T04:00:13.533Z,101486.00
2023-02-14T04:02:47.025Z,101479.00
2023-02-14T04:05:20.428Z,101492.00
2023-02-14T04:07:52.419Z,101496.00
2023-02-14T04:10:21.777Z,101499.00
2023-02-14T04:12:52.248Z,101503.00
2023-02-14T04:15:20.168Z,101495.00
2023-02-14T04:18:05.559Z,101494.00
2023-02-14T04:20:34.107Z,101497.00
2023-02-14T04:23:03.555Z,101494.00
2023-02-14T04:25:32.354Z,101488.00
2023-02-14T04:28:01.572Z,101489.00
2023-02-14T04:30:29.503Z,101481.00
2023-02-14T04:32:57.468Z,101483.00
2023-02-14T04:35:25.300Z,101481.00
2023-02-14T04:37:53.217Z,101490.00
2023-02-14T04:40:21.399Z,101487.00
2023-02-14T04:42:49.416Z,101482.00
2023-02-14T04:45:18.725Z,101480.00
2023-02-14T04:47:46.661Z,101482.00
2023-02-14T04:50:15.176Z,101488.00
2023-02-14T04:52:43.333Z,101477.00
2023-02-14T04:55:11.858Z,101475.00
2023-02-14T04:57:39.758Z,101473.00
2023-02-14T05:00:09.387Z,101474.00
2023-02-14T05:02:38.745Z,101470.00
2023-02-14T05:05:07.779Z,101476.00
2023-02-14T05:07:35.721Z,101481.00
2023-02-14T05:10:04.059Z,101474.00
2023-02-14T05:12:31.930Z,101464.00
2023-02-14T05:14:59.816Z,101464.00
2023-02-14T05:17:27.748Z,101465.00
2023-02-14T05:19:56.917Z,101466.00
2023-02-14T05:22:24.871Z,101463.00
2023-02-14T05:24:52.729Z,101460.00
2023-02-14T05:27:20.554Z,101464.00
2023-02-14T05:29:48.549Z,101457.00
2023-02-14T05:32:16.458Z,101454.00
2023-02-14T05:34:44.408Z,101451.00
2023-02-14T05:37:13.573Z,101445.00
2023-02-14T05:39:41.470Z,101442.00
2023-02-14T05:42:11.829Z,101444.00
2023-02-14T05:44:39.685Z,101455.00
2023-02-14T05:47:07.516Z,101463.00
2023-02-14T05:49:36.069Z,101459.00
2023-02-14T05:52:04.506Z,101458.00
2023-02-14T05:54:34.034Z,101462.00
2023-02-14T05:57:01.912Z,101456.00
2023-02-14T05:59:29.786Z,101459.00
2023-02-14T06:01:57.665Z,101455.00
2023-02-14T06:04:25.870Z,101459.00
2023-02-14T06:06:53.744Z,101457.00
2023-02-14T06:09:21.642Z,101467.00
2023-02-14T06:11:50.875Z,101475.00
2023-02-14T06:14:19.570Z,101465.00
2023-02-14T06:16:47.556Z,101457.00
2023-02-14T06:19:15.453Z,101472.00
2023-02-14T06:21:43.430Z,101475.00
2023-02-14T06:24:11.418Z,101476.00
2023-02-14T06:26:39.290Z,101470.00
2023-02-14T06:29:08.539Z,101472.00
2023-02-14T06:31:36.689Z,101468.00
2023-02-14T06:34:04.635Z,101470.00
2023-02-14T06:36:32.591Z,101454.00
2023-02-14T06:39:00.460Z,101475.00
2023-02-14T06:41:28.560Z,101477.00
2023-02-14T06:43:56.449Z,101477.00
2023-02-14T06:46:25.748Z,101473.00
2023-02-14T06:48:53.671Z,101479.00
2023-02-14T06:51:21.555Z,101474.00
2023-02-14T06:53:49.381Z,101468.00
2023-02-14T06:56:17.247Z,101463.00
2023-02-14T06:58:45.325Z,101462.00
2023-02-14T07:01:13.167Z,101461.00
2023-02-14T07:03:43.482Z,101438.00
2023-02-14T07:06:11.318Z,101452.00
2023-02-14T07:08:39.302Z,101459.00
2023-02-14T07:11:07.127Z,101461.00
2023-02-14T07:13:34.972Z,101455.00
2023-02-14T07:16:02.931Z,101458.00
2023-02-14T07:18:30.909Z,101456.00
2023-02-14T07:21:00.386Z,101451.00
2023-02-14T07:23:28.553Z,101456.00
2023-02-14T07:25:56.758Z,101450.00
2023-02-14T07:28:24.613Z,101457.00
2023-02-14T07:30:52.611Z,101456.00
2023-02-14T07:33:20.607Z,101455.00
2023-02-14T07:35:48.493Z,101457.00
2023-02-14T07:38:17.700Z,101451.00
2023-02-14T07:40:45.642Z,101454.00
2023-02-14T07:43:13.479Z,101456.00
2023-02-14T07:45:41.354Z,101452.00
2023-02-14T07:48:09.236Z,101450.00
2023-02-14T07:50:37.170Z,101449.00
2023-02-14T07:53:05.044Z,101447.00
2023-02-14T07:55:34.224Z,101450.00
2023-02-14T07:58:02.713Z,101433.00
2023-02-14T08:00:30.686Z,101452.00
2023-02-14T08:02:58.566Z,101441.00
2023-02-14T08:05:26.479Z,101446.00
2023-02-14T08:07:54.452Z,101446.00
2023-02-14T08:10:22.298Z,101438.00
2023-02-14T08:13:00.417Z,101437.00
2023-02-14T08:15:46.794Z,101440.00
2023-02-14T08:18:15.406Z,101445.00
2023-02-14T08:20:43.730Z,101446.00
2023-02-14T08:23:12.068Z,101452.00
2023-02-14T08:25:40.361Z,101446.00
2023-02-14T08:28:09.891Z,101448.00
2023-02-14T08:30:39.207Z,101454.00
2023-02-14T08:33:07.713Z,101458.00
2023-02-14T08:35:36.988Z,101460.00
2023-02-14T08:38:06.004Z,101440.00
2023-02-14T08:40:35.047Z,101439.00
2023-02-14T08:43:02.929Z,101457.00
2023-02-14T08:45:32.446Z,101449.00
2023-02-14T08:48:06.524Z,101450.00
2023-02-14T08:50:36.078Z,101445.00
2023-02-14T08:53:08.446Z,101446.00
2023-02-14T08:55:36.920Z,101454.00
2023-02-14T08:58:06.551Z,101451.00
2023-02-14T09:00:36.273Z,101449.00
2023-02-14T09:03:04.455Z,101453.00
2023-02-14T09:05:32.677Z,101460.00
2023-02-14T09:08:00.752Z,101461.00
2023-02-14T09:10:28.731Z,101452.00
2023-02-14T09:12:56.702Z,101454.00
2023-02-14T09:15:24.649Z,101457.00
2023-02-14T09:17:53.904Z,101456.00
2023-02-14T09:20:22.689Z,101435.00
2023-02-14T09:22:50.658Z,101445.00
2023-02-14T09:25:18.924Z,101454.00
2023-02-14T09:27:46.819Z,101451.00
2023-02-14T09:30:16.341Z,101448.00
2023-02-14T09:32:44.272Z,101456.00
2023-02-14T09:35:30.904Z,101456.00
2023-02-14T09:37:59.090Z,101443.00
2023-02-14T09:40:27.067Z,101456.00
2023-02-14T09:43:07.782Z,101448.00
2023-02-14T09:45:37.096Z,101446.00
2023-02-14T09:48:12.479Z,101450.00
2023-02-14T09:50:47.972Z,101457.00
2023-02-14T09:53:26.896Z,101461.00
2023-02-14T09:56:07.386Z,101464.00
2023-02-14T09:58:44.986Z,101454.00
2023-02-14T10:01:22.634Z,101453.00
2023-02-14T10:04:25.516Z,101457.00
2023-02-14T10:07:09.298Z,101439.00
2023-02-14T10:09:55.355Z,101465.00
2023-02-14T10:12:28.566Z,101465.00
2023-02-14T10:15:03.125Z,101455.00
2023-02-14T10:17:41.912Z,101462.00
2023-02-14T10:20:24.637Z,101460.00
2023-02-14T10:23:04.356Z,101461.00
2023-02-14T10:25:43.401Z,101464.00
2023-02-14T10:28:16.824Z,101463.00
2023-02-14T10:30:58.112Z,101462.00
2023-02-14T10:33:34.159Z,101462.00
2023-02-14T10:36:12.600Z,101460.00
2023-02-14T10:38:57.185Z,101461.00
2023-02-14T10:41:41.141Z,101461.00
2023-02-14T10:44:35.702Z,101456.00
2023-02-14T10:47:24.447Z,101456.00
2023-02-14T10:50:06.456Z,101454.00
2023-02-14T10:52:44.222Z,101459.00
2023-02-14T10:55:31.849Z,101446.00
2023-02-14T10:58:04.006Z,101452.00
2023-02-14T11:00:36.145Z,101454.00
2023-02-14T11:03:10.804Z,101449.00
2023-02-14T11:05:46.526Z,101451.00
2023-02-14T11:08:26.790Z,101445.00
2023-02-14T11:11:17.278Z,101435.00
2023-02-14T11:13:47.161Z,101443.00
2023-02-14T11:16:31.482Z,101436.00
2023-02-14T11:19:20.796Z,101435.00
2023-02-14T11:21:51.530Z,101423.00
2023-02-14T11:24:27.102Z,101426.00
2023-02-14T11:27:00.725Z,101419.00
2023-02-14T11:29:32.770Z,101418.00
2023-02-14T11:32:10.378Z,101415.00
2023-02-14T11:34:41.917Z,101424.00
2023-02-14T11:37:27.700Z,101411.00
2023-02-14T11:39:58.990Z,101408.00
2023-02-14T11:42:43.448Z,101415.00
2023-02-14T11:45:35.009Z,101402.00
2023-02-14T11:48:22.010Z,101412.00
2023-02-14T11:51:01.676Z,101402.00
2023-02-14T11:53:39.877Z,101401.00
2023-02-14T11:56:07.890Z,101396.00
2023-02-14T11:58:41.229Z,101394.00
2023-02-14T12:01:15.341Z,101395.00
2023-02-14T12:03:48.892Z,101381.00
2023-02-14T12:06:26.504Z,101379.00
2023-02-14T12:09:13.723Z,101389.00
2023-02-14T12:11:41.732Z,101378.00
2023-02-14T12:14:22.718Z,101372.00
2023-02-14T12:16:58.856Z,101363.00
2023-02-14T12:19:44.108Z,101369.00
2023-02-14T12:22:19.898Z,101364.00
2023-02-14T12:24:59.789Z,101355.00
2023-02-14T12:27:35.552Z,101357.00
2023-02-14T12:30:15.101Z,101360.00
2023-02-14T12:32:50.289Z,101359.00
2023-02-14T12:35:30.885Z,101349.00
2023-02-14T12:38:12.374Z,101350.00
2023-02-14T12:40:52.957Z,101355.00
2023-02-14T12:43:47.945Z,101346.00
2023-02-14T12:46:52.951Z,101344.00
2023-02-14T12:49:47.616Z,101343.00
2023-02-14T12:52:41.799Z,101348.00
2023-02-14T12:55:35.069Z,101342.00
2023-02-14T12:58:19.225Z,101338.00
2023-02-14T13:01:00.788Z,101331.00
2023-02-14T13:03:51.576Z,101328.00
2023-02-14T13:06:30.366Z,101321.00
2023-02-14T13:09:21.416Z,101323.00
2023-02-14T13:12:08.003Z,101317.00
2023-02-14T13:15:00.451Z,101307.00
2023-02-14T13:17:37.452Z,101315.00
2023-02-14T13:20:43.357Z,101310.00
2023-02-14T13:23:19.097Z,101310.00
2023-02-14T13:25:53.551Z,101301.00
2023-02-14T13:28:22.362Z,101295.00
2023-02-14T13:30:50.640Z,101298.00
2023-02-14T13:33:30.760Z,101276.00
2023-02-14T13:36:08.601Z,101283.00
2023-02-14T13:38:45.035Z,101289.00
2023-02-14T13:41:15.364Z,101286.00
2023-02-14T13:43:52.775Z,101282.00
2023-02-14T13:46:38.541Z,101283.00
2023-02-14T13:49:29.067Z,101288.00
2023-02-14T13:52:01.189Z,101287.00
2023-02-14T13:54:45.043Z,101291.00
2023-02-14T13:57:34.846Z,101287.00
2023-02-14T14:00:42.316Z,101279.00
2023-02-14T14:03:36.731Z,101272.00
2023-02-14T14:06:07.963Z,101264.00
2023-02-14T14:08:47.721Z,101272.00
2023-02-14T14:11:58.361Z,101281.00
2023-02-14T14:14:43.984Z,101262.00
2023-02-14T14:17:25.954Z,101273.00
2023-02-14T14:19:54.697Z,101265.00
2023-02-14T14:22:23.064Z,101270.00
2023-02-14T14:24:59.609Z,101269.00
2023-02-14T14:27:34.260Z,101267.00
2023-02-14T14:30:05.766Z,101265.00
2023-02-14T14:32:37.184Z,101258.00
2023-02-14T14:35:17.898Z,101263.00
2023-02-14T14:37:49.850Z,101257.00
2023-02-14T14:40:29.646Z,101259.00
2023-02-14T14:43:06.340Z,101256.00
2023-02-14T14:45:34.278Z,101251.00
2023-02-14T14:48:12.330Z,101249.00
2023-02-14T14:50:45.264Z,101246.00
2023-02-14T14:53:23.012Z,101249.00
2023-02-14T14:55:53.213Z,101246.00
2023-02-14T14:58:38.465Z,101239.00
2023-02-14T15:01:13.005Z,101242.00
2023-02-14T15:03:40.961Z,101235.00
2023-02-14T15:06:18.964Z,101236.00
2023-02-14T15:08:48.706Z,101231.00
2023-02-14T15:11:37.502Z,101227.00
2023-02-14T15:14:09.242Z,101223.00
2023-02-14T15:16:46.849Z,101225.00
2023-02-14T15:19:26.627Z,101229.00
2023-02-14T15:21:54.555Z,101221.00
2023-02-14T15:24:22.458Z,101229.00
2023-02-14T15:26:53.523Z,101222.00
2023-02-14T15:29:25.480Z,101218.00
2023-02-14T15:31:54.735Z,101213.00
2023-02-14T15:34:28.382Z,101210.00
2023-02-14T15:37:03.511Z,101194.00
2023-02-14T15:39:39.525Z,101210.00
2023-02-14T15:42:25.624Z,101216.00
2023-02-14T15:45:16.217Z,101210.00
2023-02-14T15:47:47.674Z,101210.00
2023-02-14T15:50:19.007Z,101206.00
2023-02-14T15:52:48.903Z,101207.00
2023-02-14T15:55:20.978Z,101207.00
2023-02-14T15:57:58.234Z,101212.00
2023-02-14T16:00:26.992Z,101205.00
2023-02-14T16:03:00.512Z,101201.00
2023-02-14T16:05:28.782Z,101201.00
2023-02-14T16:08:04.379Z,101184.00
2023-02-14T16:10:34.882Z,101197.00
2023-02-14T16:13:06.562Z,101201.00
2023-02-14T16:15:36.644Z,101198.00
2023-02-14T16:18:17.357Z,101194.00
2023-02-14T16:20:46.983Z,101178.00
2023-02-14T16:23:17.543Z,101193.00
2023-02-14T16:25:45.503Z,101189.00
2023-02-14T16:28:15.168Z,101206.00
2023-02-14T16:30:45.804Z,101210.00
2023-02-14T16:33:24.428Z,101193.00
2023-02-14T16:35:52.679Z,101208.00
2023-02-14T16:38:22.241Z,101202.00
2023-02-14T16:40:54.725Z,101198.00
2023-02-14T16:43:23.952Z,101204.00
2023-02-14T16:45:51.893Z,101203.00
2023-02-14T16:48:19.802Z,101199.00
2023-02-14T16:50:48.450Z,101200.00
2023-02-14T16:53:27.004Z,101192.00
2023-02-14T16:55:57.967Z,101200.00
2023-02-14T16:58:35.558Z,101200.00
2023-02-14T17:01:04.159Z,101196.00
2023-02-14T17:03:32.071Z,101199.00
2023-02-14T17:06:02.930Z,101207.00
2023-02-14T17:08:32.179Z,101201.00
2023-02-14T17:11:02.042Z,101209.00
2023-02-14T17:13:36.046Z,101219.00
2023-02-14T17:16:06.302Z,101207.00
2023-02-14T17:18:37.014Z,101211.00
2023-02-14T17:21:06.690Z,101206.00
2023-02-14T17:23:34.672Z,101204.00
2023-02-14T17:26:02.543Z,101208.00
2023-02-14T17:28:31.700Z,101211.00
2023-02-14T17:31:00.929Z,101194.00
2023-02-14T17:33:30.433Z,101203.00
2023-02-14T17:36:06.758Z,101209.00
2023-02-14T17:38:35.865Z,101208.00
2023-02-14T17:41:13.723Z,101200.00
2023-02-14T17:43:43.388Z,101193.00
2023-02-14T17:46:14.190Z,101193.00
2023-02-14T17:48:45.321Z,101183.00
2023-02-14T17:51:14.698Z,101188.00
2023-02-14T17:53:44.366Z,101190.00
2023-02-14T17:56:17.921Z,101185.00
2023-02-14T17:58:48.630Z,101177.00
2023-02-14T18:01:19.474Z,101182.00
2023-02-14T18:03:48.030Z,101181.00
2023-02-14T18:06:16.636Z,101166.00
2023-02-14T18:08:49.249Z,101170.00
2023-02-14T18:11:18.951Z,101163.00
2023-02-14T18:13:49.687Z,101168.00
2023-02-14T18:16:19.942Z,101146.00
2023-02-14T18:18:48.185Z,101164.00
2023-02-14T18:21:20.134Z,101147.00
2023-02-14T18:23:48.333Z,101162.00
2023-02-14T18:26:18.936Z,101159.00
2023-02-14T18:28:50.816Z,101147.00
2023-02-14T18:31:19.472Z,101149.00
2023-02-14T18:33:49.692Z,101155.00
2023-02-14T18:36:20.982Z,101153.00
2023-02-14T18:38:49.957Z,101129.00
2023-02-14T18:41:20.592Z,101142.00
2023-02-14T18:43:50.643Z,101149.00
2023-02-14T18:46:22.290Z,101138.00
2023-02-14T18:48:51.296Z,101137.00
2023-02-14T18:51:23.496Z,101135.00
2023-02-14T18:53:54.407Z,101142.00
2023-02-14T18:56:25.459Z,101130.00
2023-02-14T18:58:59.783Z,101130.00
2023-02-14T19:01:31.336Z,101127.00
2023-02-14T19:04:01.382Z,101125.00
2023-02-14T19:06:32.089Z,101127.00
2023-02-14T19:09:00.042Z,101132.00
2023-02-14T19:11:32.645Z,101130.00
2023-02-14T19:14:08.297Z,101132.00
2023-02-14T19:16:38.629Z,101102.00
2023-02-14T19:19:08.363Z,101121.00
2023-02-14T19:21:36.704Z,101111.00
2023-02-14T19:24:07.822Z,101117.00
2023-02-14T19:26:40.142Z,101110.00
2023-02-14T19:29:14.207Z,101107.00
2023-02-14T19:31:45.909Z,101107.00
2023-02-14T19:34:18.650Z,101111.00
2023-02-14T19:36:47.050Z,101102.00
2023-02-14T19:39:15.698Z,101094.00
2023-02-14T19:41:43.804Z,101106.00
2023-02-14T19:44:15.547Z,101100.00
2023-02-14T19:46:46.089Z,101103.00
2023-02-14T19:49:16.612Z,101095.00
2023-02-14T19:51:45.646Z,101103.00
2023-02-14T19:54:13.940Z,101101.00
2023-02-14T19:56:44.406Z,101095.00
2023-02-14T19:59:19.791Z,101090.00
2023-02-14T20:01:50.825Z,101089.00
2023-02-14T20:04:21.244Z,101087.00
2023-02-14T20:06:50.195Z,101085.00
2023-02-14T20:09:21.618Z,101083.00
2023-02-14T20:11:52.063Z,101079.00
2023-02-14T20:14:24.223Z,101067.00
2023-02-14T20:16:53.794Z,101067.00
2023-02-14T20:19:26.858Z,101084.00
2023-02-14T20:21:55.822Z,101059.00
2023-02-14T20:24:26.662Z,101080.00
2023-02-14T20:26:55.766Z,101077.00
2023-02-14T20:29:26.376Z,101077.00
2023-02-14T20:31:59.652Z,101072.00
2023-02-14T20:34:28.290Z,101078.00
2023-02-14T20:36:56.453Z,101073.00
2023-02-14T20:39:30.435Z,101067.00
2023-02-14T20:41:58.649Z,101073.00
2023-02-14T20:44:28.820Z,101063.00
2023-02-14T20:46:57.825Z,101064.00
2023-02-14T20:49:28.485Z,101040.00
2023-02-14T20:51:56.933Z,101066.00
2023-02-14T20:54:28.188Z,101062.00
2023-02-14T20:56:57.801Z,101059.00
2023-02-14T20:59:28.559Z,101058.00
2023-02-14T21:01:59.043Z,101055.00
2023-02-14T21:04:27.461Z,101058.00
2023-02-14T21:06:57.609Z,101055.00
2023-02-14T21:09:25.557Z,101042.00
2023-02-14T21:11:53.934Z,101057.00
2023-02-14T21:14:22.432Z,101051.00
2023-02-14T21:16:51.665Z,101047.00
2023-02-14T21:19:19.790Z,101046.00
2023-02-14T21:21:47.719Z,101049.00
2023-02-14T21:24:17.471Z,101031.00
2023-02-14T21:26:45.810Z,101041.00
2023-02-14T21:29:13.772Z,101044.00
2023-02-14T21:31:42.458Z,101039.00
2023-02-14T21:34:12.088Z,101043.00
2023-02-14T21:36:39.981Z,101036.00
2023-02-14T21:39:08.959Z,101026.00
2023-02-14T21:41:37.798Z,101030.00
2023-02-14T21:44:07.302Z,101021.00
2023-02-14T21:46:39.356Z,101024.00
2023-02-14T21:49:25.823Z,101025.00
2023-02-14T21:51:55.005Z,101019.00
2023-02-14T21:54:22.963Z,101021.00
2023-02-14T21:56:50.842Z,101019.00
2023-02-14T21:59:18.789Z,101012.00
2023-02-14T22:01:46.785Z,101011.00
2023-02-14T22:04:14.766Z,101010.00
2023-02-14T22:06:44.014Z,101008.00
2023-02-14T22:09:17.355Z,101008.00
2023-02-14T22:11:47.438Z,100999.00
2023-02-14T22:14:15.758Z,101000.00
2023-02-14T22:16:44.144Z,100996.00
2023-02-14T22:19:15.904Z,100993.00
2023-02-14T22:21:44.476Z,101003.00
2023-02-14T22:24:13.854Z,100998.00
2023-02-14T22:26:42.304Z,100997.00
2023-02-14T22:29:13.788Z,101002.00
2023-02-14T22:31:44.144Z,100984.00
2023-02-14T22:34:17.554Z,100981.00
2023-02-14T22:36:45.405Z,100984.00
2023-02-14T22:39:17.393Z,100972.00
2023-02-14T22:41:46.542Z,100992.00
2023-02-14T22:44:15.016Z,100990.00
2023-02-14T22:46:43.170Z,100995.00
2023-02-14T22:49:11.034Z,101001.00
2023-02-14T22:51:42.084Z,100997.00
2023-02-14T22:54:13.412Z,100995.00
2023-02-14T22:56:45.152Z,100985.00
2023-02-14T22:59:17.846Z,100977.00
2023-02-14T23:01:46.457Z,100992.00
2023-02-14T23:04:16.092Z,100985.00
2023-02-14T23:06:44.646Z,100990.00
2023-02-14T23:09:13.612Z,100991.00
2023-02-14T23:11:44.756Z,100980.00
2023-02-14T23:14:31.666Z,100982.00
2023-02-14T23:17:19.623Z,100987.00
2023-02-14T23:20:06.364Z,100981.00
2023-02-14T23:22:37.937Z,100974.00
2023-02-14T23:25:09.439Z,100982.00
2023-02-14T23:27:42.885Z,100972.00
2023-02-14T23:30:14.712Z,100978.00
2023-02-14T23:32:42.983Z,100981.00
2023-02-14T23:35:11.676Z,100979.00
2023-02-14T23:37:39.988Z,100980.00
2023-02-14T23:40:09.808Z,100969.00
2023-02-14T23:42:39.176Z,100971.00
2023-02-14T23:45:26.458Z,100954.00
2023-02-14T23:47:54.426Z,100952.00
2023-02-14T23:50:22.345Z,100959.00
2023-02-14T23:52:50.331Z,100958.00
2023-02-14T23:55:18.847Z,100966.00
2023-02-14T23:57:48.238Z,100967.00
